Time;durP1;ratioP1;P1;durP2;ratioP2;P2;SDS_P1;SDS_P2;PMS_P1;PMS_P2;Temp;Humidity;BMP_temperature;BMP_pressure;BME280_temperature;BME280_humidity;BME280_pressure;Samples;Min_cycle;Max_cycle;Signal;HPM_P1;HPM_P2
2022/09/03 00:01:23;;;;;;;5.80;5.30;;;23.60;68.30;;;;;;5037929;28;20039;-74
2022/09/03 00:03:56;;;;;;;5.75;5.15;;;23.60;68.20;;;;;;5071614;28;20259;-75
2022/09/03 00:06:27;;;;;;;;;;;23.60;68.20;;;;;;5072221;28;20074;-75
2022/09/03 00:09:14;;;;;;;5.85;5.20;;;23.60;68.20;;;;;;5054671;28;19908;-75
2022/09/03 00:12:00;;;;;;;5.97;4.95;;;23.60;68.20;;;;;;5072796;28;20024;-75
2022/09/03 00:14:27;;;;;;;6.40;5.10;;;23.60;68.20;;;;;;5056433;28;20052;-75
2022/09/03 00:16:57;;;;;;;6.03;5.50;;;23.60;68.30;;;;;;5071409;28;20036;-75
2022/09/03 00:19:25;;;;;;;6.88;5.28;;;23.60;68.20;;;;;;5071218;28;20041;-75
2022/09/03 00:21:59;;;;;;;6.30;5.38;;;23.60;68.20;;;;;;5071406;28;20019;-75
2022/09/03 00:24:32;;;;;;;5.85;5.20;;;23.60;68.20;;;;;;5071485;28;20016;-75
2022/09/03 00:27:00;;;;;;;6.57;5.38;;;23.60;68.20;;;;;;5071522;28;20040;-75
2022/09/03 00:29:33;;;;;;;5.47;4.97;;;23.60;68.30;;;;;;5071666;28;20021;-75
2022/09/03 00:32:02;;;;;;;6.10;5.28;;;23.60;68.20;;;;;;5071292;28;20028;-75
2022/09/03 00:34:29;;;;;;;5.75;5.18;;;23.60;68.20;;;;;;5071234;28;20042;-75
2022/09/03 00:36:55;;;;;;;6.78;5.25;;;23.60;68.20;;;;;;5072331;28;20485;-75
2022/09/03 00:39:23;;;;;;;5.63;5.13;;;23.60;68.20;;;;;;5071049;28;20560;-75
2022/09/03 00:42:05;;;;;;;6.18;5.57;;;23.60;68.20;;;;;;5089716;28;20039;-74
2022/09/03 00:44:47;;;;;;;8.75;5.70;;;23.60;68.20;;;;;;5092567;28;20484;-74
2022/09/03 00:47:45;;;;;;;4.93;4.40;;;23.60;68.20;;;;;;5090843;28;20090;-74
2022/09/03 00:50:16;;;;;;;5.45;4.95;;;23.60;68.20;;;;;;5092251;28;20020;-75
2022/09/03 00:53:09;;;;;;;7.50;4.85;;;23.60;68.20;;;;;;5092566;28;20024;-75
2022/09/03 00:55:35;;;;;;;8.90;5.00;;;23.60;68.40;;;;;;5092405;28;20047;-75
2022/09/03 00:58:09;;;;;;;8.30;4.57;;;23.60;68.20;;;;;;5092245;28;20491;-75
2022/09/03 01:00:35;;;;;;;10.18;4.88;;;23.60;68.10;;;;;;5092356;28;20103;-75
2022/09/03 01:03:06;;;;;;;5.00;4.60;;;23.60;68.20;;;;;;5074262;28;20445;-75
2022/09/03 01:06:02;;;;;;;10.15;4.80;;;23.60;68.20;;;;;;5092415;28;20016;-75
2022/09/03 01:08:49;;;;;;;7.22;4.70;;;23.60;68.10;;;;;;5091323;28;20027;-75
2022/09/03 01:11:34;;;;;;;6.40;5.07;;;23.60;68.20;;;;;;5091130;28;20031;-75
2022/09/03 01:14:07;;;;;;;10.20;5.15;;;23.60;68.30;;;;;;5091168;28;20059;-74
2022/09/03 01:16:39;;;;;;;5.32;4.70;;;23.60;68.20;;;;;;5090890;28;20081;-74
2022/09/03 01:19:14;;;;;;;6.72;4.70;;;23.60;68.30;;;;;;5092341;28;20024;-75
2022/09/03 01:21:40;;;;;;;5.72;4.85;;;23.60;68.30;;;;;;5071124;28;20051;-75
2022/09/03 01:24:18;;;;;;;8.05;4.70;;;23.60;68.30;;;;;;5072246;28;20056;-75
2022/09/03 01:27:00;;;;;;;9.82;4.88;;;23.60;68.30;;;;;;5072354;28;20082;-75
2022/09/03 01:29:37;;;;;;;11.30;4.63;;;23.60;68.30;;;;;;5071404;28;20027;-75
2022/09/03 01:32:14;;;;;;;10.48;4.68;;;23.60;68.30;;;;;;5076714;28;20028;-74
2022/09/03 01:35:01;;;;;;;5.32;4.90;;;23.60;68.20;;;;;;5074988;28;20032;-75
2022/09/03 01:37:34;;;;;;;10.05;4.53;;;23.60;68.30;;;;;;5092100;28;20028;-75
2022/09/03 01:40:15;;;;;;;9.82;4.22;;;23.60;68.40;;;;;;5085366;28;20107;-75
2022/09/03 01:43:08;;;;;;;9.65;4.53;;;23.60;68.40;;;;;;5070725;28;20496;-75
2022/09/03 01:45:52;;;;;;;6.55;4.20;;;23.60;68.40;;;;;;5070307;28;20418;-75
2022/09/03 01:48:39;;;;;;;5.90;4.88;;;23.60;68.40;;;;;;5070219;28;20049;-75
2022/09/03 01:51:16;;;;;;;6.90;4.95;;;23.60;68.50;;;;;;5056262;28;20515;-75
2022/09/03 01:54:19;;;;;;;7.78;4.75;;;23.60;68.40;;;;;;5070847;28;20025;-75
2022/09/03 01:57:00;;;;;;;;;;;23.60;68.40;;;;;;5072155;28;20042;-75
2022/09/03 02:00:12;;;;;;;7.70;4.47;;;23.60;68.40;;;;;;5070102;28;19909;-75
2022/09/03 02:02:39;;;;;;;4.82;4.43;;;23.60;68.40;;;;;;5065419;28;20029;-75
2022/09/03 02:05:13;;;;;;;5.25;4.55;;;23.60;68.40;;;;;;5075182;28;20021;-75
2022/09/03 02:07:45;;;;;;;13.02;4.68;;;23.60;68.40;;;;;;5073739;28;20024;-75
2022/09/03 02:10:18;;;;;;;10.70;4.30;;;23.60;68.50;;;;;;5057343;28;20495;-75
2022/09/03 02:12:52;;;;;;;5.47;4.18;;;23.60;68.50;;;;;;5041352;28;20032;-75
2022/09/03 02:15:19;;;;;;;13.60;4.28;;;23.60;68.40;;;;;;5073550;28;20021;-74
2022/09/03 02:17:46;;;;;;;5.10;4.15;;;23.60;68.40;;;;;;5073474;28;20055;-74
2022/09/03 02:20:18;;;;;;;16.30;4.30;;;23.60;68.50;;;;;;5073712;28;20031;-74
2022/09/03 02:22:44;;;;;;;;;;;23.60;68.50;;;;;;5057775;28;20091;-74
2022/09/03 02:25:10;;;;;;;4.63;4.15;;;23.60;68.40;;;;;;5073473;28;19989;-74
2022/09/03 02:27:39;;;;;;;6.80;4.30;;;23.60;68.50;;;;;;5056758;28;20024;-74
2022/09/03 02:30:05;;;;;;;4.40;3.95;;;23.60;68.50;;;;;;5057314;28;20485;-74
2022/09/03 02:32:31;;;;;;;9.85;4.00;;;23.60;68.50;;;;;;5056622;28;20107;-74
2022/09/03 02:34:57;;;;;;;6.97;3.97;;;23.60;68.50;;;;;;5039930;28;20531;-74
2022/09/03 02:37:22;;;;;;;4.13;3.70;;;23.60;68.50;;;;;;5074677;28;20409;-74
2022/09/03 02:39:50;;;;;;;4.28;3.80;;;23.60;68.50;;;;;;5074232;28;20024;-74
2022/09/03 02:42:16;;;;;;;5.20;4.07;;;23.60;68.50;;;;;;5073321;28;20094;-74
2022/09/03 02:44:59;;;;;;;5.65;4.22;;;23.60;68.50;;;;;;5056370;28;20423;-74
2022/09/03 02:47:27;;;;;;;5.80;4.03;;;23.60;68.50;;;;;;5056591;28;20416;-74
2022/09/03 02:49:53;;;;;;;5.63;4.20;;;23.60;68.50;;;;;;5056904;28;20044;-74
2022/09/03 02:52:18;;;;;;;7.55;4.03;;;23.60;68.50;;;;;;5072897;28;20028;-74
2022/09/03 02:54:44;;;;;;;4.72;4.30;;;23.60;69.50;;;;;;5073142;28;20089;-74
2022/09/03 02:57:14;;;;;;;7.85;4.20;;;23.60;68.50;;;;;;5056195;28;20032;-74
2022/09/03 02:59:42;;;;;;;5.70;3.90;;;23.60;68.50;;;;;;5055895;28;20461;-74
2022/09/03 03:02:08;;;;;;;4.65;4.25;;;23.60;68.50;;;;;;5074127;28;20020;-74
2022/09/03 03:04:34;;;;;;;4.50;3.75;;;23.60;68.60;;;;;;5073722;28;20033;-74
2022/09/03 03:06:59;;;;;;;4.97;4.00;;;23.60;68.50;;;;;;5056241;28;20016;-75
2022/09/03 03:09:25;;;;;;;5.50;4.22;;;23.60;68.60;;;;;;5073826;28;20016;-75
2022/09/03 03:11:52;;;;;;;3.63;3.33;;;23.60;68.60;;;;;;5055861;28;20060;-74
2022/09/03 03:14:18;;;;;;;5.68;4.13;;;23.60;68.50;;;;;;5072470;28;20387;-74
2022/09/03 03:16:43;;;;;;;5.30;4.35;;;23.60;68.50;;;;;;5072553;28;20016;-74
2022/09/03 03:19:09;;;;;;;4.63;4.07;;;23.60;68.50;;;;;;5055722;28;20024;-74
2022/09/03 03:21:35;;;;;;;4.68;3.95;;;23.60;68.50;;;;;;5073466;28;20021;-74
2022/09/03 03:24:01;;;;;;;5.60;3.90;;;23.60;68.50;;;;;;5055809;28;20098;-74
2022/09/03 03:26:27;;;;;;;5.28;3.75;;;23.60;68.50;;;;;;5072174;28;20025;-74
2022/09/03 03:28:55;;;;;;;4.05;3.75;;;23.60;68.50;;;;;;5073569;28;20044;-74
2022/09/03 03:31:21;;;;;;;6.03;3.78;;;23.60;68.50;;;;;;5055774;28;20021;-74
2022/09/03 03:33:54;;;;;;;4.25;3.85;;;23.60;68.50;;;;;;5072275;28;20034;-74
2022/09/03 03:36:21;;;;;;;4.38;3.78;;;23.60;68.50;;;;;;5055467;28;20033;-74
2022/09/03 03:38:46;;;;;;;4.93;4.40;;;23.60;68.50;;;;;;5038768;28;20063;-74
2022/09/03 03:41:17;;;;;;;7.68;3.78;;;23.60;68.50;;;;;;5071662;28;20036;-74
2022/09/03 03:43:42;;;;;;;4.07;3.67;;;23.60;68.50;;;;;;5072032;28;20508;-74
2022/09/03 03:46:09;;;;;;;4.45;3.90;;;23.60;68.50;;;;;;5055347;28;20063;-74
2022/09/03 03:48:35;;;;;;;4.13;3.72;;;23.60;68.40;;;;;;5071794;28;20021;-74
2022/09/03 03:51:03;;;;;;;3.83;3.53;;;23.60;68.50;;;;;;5055387;28;20028;-74
2022/09/03 03:53:29;;;;;;;4.35;3.67;;;23.60;68.50;;;;;;5055427;28;20023;-74
2022/09/03 03:55:55;;;;;;;4.18;3.75;;;23.60;68.40;;;;;;5071526;28;20519;-74
2022/09/03 03:58:21;;;;;;;3.60;3.30;;;23.60;68.40;;;;;;5055017;28;20030;-74
2022/09/03 04:00:48;;;;;;;4.25;3.65;;;23.60;68.40;;;;;;5071746;28;20419;-74
2022/09/03 04:03:13;;;;;;;3.88;3.42;;;23.60;68.50;;;;;;5072782;28;20051;-74
2022/09/03 04:05:39;;;;;;;4.50;3.40;;;23.60;68.40;;;;;;5071467;28;20052;-74
2022/09/03 04:08:05;;;;;;;4.80;3.97;;;23.60;68.40;;;;;;5071647;28;20025;-74
2022/09/03 04:10:31;;;;;;;4.18;3.80;;;23.60;68.50;;;;;;5072581;28;20028;-74
2022/09/03 04:12:56;;;;;;;4.72;3.42;;;23.60;68.40;;;;;;5038214;28;20495;-74
2022/09/03 04:15:22;;;;;;;4.70;3.58;;;23.60;68.50;;;;;;5072721;28;20090;-74
2022/09/03 04:17:47;;;;;;;4.88;3.50;;;23.60;68.50;;;;;;5072536;28;20036;-74
2022/09/03 04:20:13;;;;;;;3.88;3.50;;;23.60;68.50;;;;;;5072712;28;20074;-74
2022/09/03 04:22:39;;;;;;;6.28;3.60;;;23.50;68.40;;;;;;5054641;28;20029;-74
2022/09/03 04:25:05;;;;;;;3.78;3.47;;;23.50;68.40;;;;;;5072016;28;20028;-74
2022/09/03 04:27:30;;;;;;;3.95;3.47;;;23.50;68.40;;;;;;5071427;28;20032;-74
2022/09/03 04:29:56;;;;;;;3.80;3.55;;;23.50;68.40;;;;;;5071186;28;20028;-75
2022/09/03 04:35:06;;;;;;;3.55;3.25;;;23.60;68.40;;;;;;5057556;28;20581;-75
2022/09/03 04:37:32;;;;;;;4.05;3.15;;;23.60;68.50;;;;;;5070947;28;20040;-75
2022/09/03 04:39:58;;;;;;;3.45;3.15;;;23.50;68.50;;;;;;5070899;28;20078;-75
2022/09/03 04:42:23;;;;;;;3.42;3.20;;;23.50;68.50;;;;;;5071291;28;20036;-75
2022/09/03 04:44:49;;;;;;;5.60;3.58;;;23.60;68.60;;;;;;5054407;28;20031;-74
2022/09/03 04:47:15;;;;;;;4.22;3.50;;;23.50;68.50;;;;;;5054157;28;20500;-74
2022/09/03 04:49:41;;;;;;;4.88;3.88;;;23.60;68.50;;;;;;5070920;28;20017;-74
2022/09/03 04:52:06;;;;;;;3.45;3.20;;;23.50;68.50;;;;;;5054329;28;20541;-74
2022/09/03 04:54:32;;;;;;;3.53;3.22;;;23.60;68.50;;;;;;5054050;28;20541;-74
2022/09/03 04:56:57;;;;;;;4.30;3.20;;;23.50;68.50;;;;;;5072178;28;20056;-74
2022/09/03 04:59:23;;;;;;;4.70;3.30;;;23.50;68.50;;;;;;5054199;28;20559;-74
2022/09/03 05:01:51;;;;;;;3.70;3.30;;;23.60;68.60;;;;;;5070885;28;20047;-74
2022/09/03 05:04:16;;;;;;;3.30;3.00;;;23.50;68.40;;;;;;5072065;28;20078;-74
2022/09/03 05:06:44;;;;;;;3.33;3.08;;;23.50;68.50;;;;;;5070758;28;20024;-74
2022/09/03 05:09:09;;;;;;;4.15;3.28;;;23.50;68.40;;;;;;5070697;28;20065;-74
2022/09/03 05:11:35;;;;;;;3.67;3.33;;;23.50;68.50;;;;;;5053998;28;20033;-74
2022/09/03 05:14:01;;;;;;;4.10;3.30;;;23.50;68.50;;;;;;5071025;28;20025;-74
2022/09/03 05:16:28;;;;;;;3.10;2.90;;;23.50;68.50;;;;;;5054219;28;20040;-74
2022/09/03 05:18:55;;;;;;;3.67;3.38;;;23.50;68.50;;;;;;5070709;28;20028;-74
2022/09/03 05:21:21;;;;;;;4.22;3.40;;;23.50;68.50;;;;;;5070770;28;20487;-74
2022/09/03 05:23:49;;;;;;;3.70;3.10;;;23.60;68.60;;;;;;5053873;28;20021;-74
2022/09/03 05:26:16;;;;;;;4.93;3.20;;;23.50;68.60;;;;;;5054409;28;20028;-74
2022/09/03 05:28:42;;;;;;;3.45;3.25;;;23.50;68.50;;;;;;5070704;28;20017;-74
2022/09/03 05:31:11;;;;;;;3.67;3.13;;;23.50;68.50;;;;;;5053942;28;20039;-74
2022/09/03 05:33:40;;;;;;;4.85;3.83;;;23.50;68.60;;;;;;5079838;28;20020;-74
2022/09/03 05:36:08;;;;;;;6.78;3.30;;;23.50;68.70;;;;;;5075281;28;20399;-74
2022/09/03 05:38:34;;;;;;;3.20;2.95;;;23.50;68.80;;;;;;5077618;28;20031;-74
2022/09/03 05:41:00;;;;;;;7.80;3.40;;;23.50;68.80;;;;;;5082928;28;20025;-74
2022/09/03 05:43:27;;;;;;;3.20;2.97;;;23.50;68.80;;;;;;5074846;28;20013;-74
2022/09/03 05:45:59;;;;;;;5.15;3.55;;;23.60;68.90;;;;;;5074434;28;20056;-74
2022/09/03 05:48:26;;;;;;;3.78;3.22;;;23.50;68.80;;;;;;5074442;28;20059;-74
2022/09/03 05:51:18;;;;;;;3.63;2.90;;;23.50;68.90;;;;;;5077730;28;20028;-74
2022/09/03 05:53:45;;;;;;;3.22;3.03;;;23.50;68.80;;;;;;5092084;28;20132;-74
2022/09/03 05:56:12;;;;;;;4.45;3.30;;;23.50;68.90;;;;;;5095027;28;20085;-75
2022/09/03 05:58:44;;;;;;;8.55;3.88;;;23.50;68.90;;;;;;5096053;28;20016;-75
2022/09/03 06:01:15;;;;;;;4.50;2.92;;;23.50;68.90;;;;;;5094906;28;20028;-74
2022/09/03 06:03:42;;;;;;;3.30;2.97;;;23.50;68.90;;;;;;5095855;28;20020;-74
2022/09/03 06:06:08;;;;;;;3.50;3.15;;;23.50;68.90;;;;;;5077871;28;20033;-73
2022/09/03 06:08:34;;;;;;;3.30;3.05;;;23.50;68.90;;;;;;5077968;28;20096;-74
2022/09/03 06:11:00;;;;;;;4.28;2.97;;;23.50;69.00;;;;;;5094656;28;20032;-74
2022/09/03 06:13:26;;;;;;;4.45;2.85;;;23.50;68.90;;;;;;5094685;28;20070;-74
2022/09/03 06:15:58;;;;;;;3.95;3.25;;;23.50;68.90;;;;;;5077751;28;20399;-73
2022/09/03 06:18:27;;;;;;;3.55;3.25;;;23.50;69.00;;;;;;5095725;28;20047;-74
2022/09/03 06:21:11;;;;;;;3.58;3.28;;;23.50;68.90;;;;;;5077422;28;20070;-74
2022/09/03 06:23:37;;;;;;;6.75;3.33;;;23.50;68.90;;;;;;5095553;28;20024;-74
2022/09/03 06:26:10;;;;;;;3.60;3.25;;;23.50;68.90;;;;;;5094386;28;20039;-74
2022/09/03 06:28:37;;;;;;;7.03;3.58;;;23.50;69.00;;;;;;5094306;28;20467;-74
2022/09/03 06:31:03;;;;;;;4.25;3.40;;;23.50;68.90;;;;;;5094247;28;20035;-74
2022/09/03 06:33:30;;;;;;;3.78;3.28;;;23.50;68.90;;;;;;5094254;28;20022;-74
2022/09/03 06:35:59;;;;;;;4.15;3.35;;;23.50;68.90;;;;;;5077223;28;20040;-74
2022/09/03 06:38:26;;;;;;;4.63;3.08;;;23.50;69.00;;;;;;5093961;28;20028;-74
2022/09/03 06:40:55;;;;;;;3.40;3.10;;;23.50;68.90;;;;;;5066422;28;20028;-74
2022/09/03 06:43:22;;;;;;;4.97;3.08;;;23.50;68.90;;;;;;5057051;28;20518;-74
2022/09/03 06:45:58;;;;;;;3.50;3.20;;;23.50;69.00;;;;;;5057089;28;20024;-74
2022/09/03 06:48:24;;;;;;;5.35;3.40;;;23.50;68.90;;;;;;5072983;28;20052;-74
2022/09/03 06:51:00;;;;;;;3.90;2.88;;;23.50;69.00;;;;;;5073441;28;20044;-74
2022/09/03 06:53:27;;;;;;;4.78;3.10;;;23.50;68.90;;;;;;5074956;28;20025;-74
2022/09/03 06:56:00;;;;;;;3.20;3.00;;;23.50;69.00;;;;;;5074413;28;20481;-73
2022/09/03 06:58:29;;;;;;;3.78;3.28;;;23.50;69.00;;;;;;5073250;28;20020;-74
2022/09/03 07:01:17;;;;;;;3.35;3.08;;;23.50;69.00;;;;;;5073094;28;20039;-73
2022/09/03 07:03:44;;;;;;;3.90;3.38;;;23.50;69.00;;;;;;5073069;28;20036;-74
2022/09/03 07:06:14;;;;;;;3.50;3.17;;;23.50;69.00;;;;;;5056548;28;20028;-74
2022/09/03 07:08:41;;;;;;;4.20;3.13;;;23.50;69.00;;;;;;5056662;28;20031;-74
2022/09/03 07:11:09;;;;;;;3.38;3.13;;;23.50;68.90;;;;;;5072957;28;20040;-74
2022/09/03 07:13:35;;;;;;;5.35;3.28;;;23.50;69.00;;;;;;5074307;28;20031;-74
2022/09/03 07:16:02;;;;;;;4.65;3.58;;;23.50;69.00;;;;;;5056593;28;20036;-74
2022/09/03 07:18:29;;;;;;;3.63;3.28;;;23.50;69.00;;;;;;5056183;28;20473;-74
2022/09/03 07:21:03;;;;;;;6.28;3.67;;;23.50;69.00;;;;;;5074016;28;20051;-74
2022/09/03 07:23:29;;;;;;;3.13;2.88;;;23.50;68.90;;;;;;5072847;28;20020;-74
2022/09/03 07:25:55;;;;;;;4.03;3.63;;;23.50;69.00;;;;;;5072738;28;20028;-76
2022/09/03 07:28:23;;;;;;;4.82;3.55;;;23.50;69.00;;;;;;5062684;28;20020;-75
2022/09/03 07:30:48;;;;;;;5.97;3.28;;;23.50;68.20;;;;;;5079267;28;20028;-72
2022/09/03 07:33:14;;;;;;;5.53;3.58;;;23.50;67.70;;;;;;5090692;28;20035;-72
2022/09/03 07:35:40;;;;;;;3.70;3.40;;;23.50;67.40;;;;;;5089692;28;20031;-72
2022/09/03 07:38:05;;;;;;;5.80;3.40;;;23.50;67.50;;;;;;5089781;28;20027;-72
2022/09/03 07:40:32;;;;;;;4.15;3.50;;;23.40;67.50;;;;;;5082904;28;20036;-72
2022/09/03 07:43:00;;;;;;;7.03;3.50;;;23.50;67.60;;;;;;5069396;28;20016;-72
2022/09/03 07:45:27;;;;;;;3.83;3.33;;;23.40;67.50;;;;;;5053606;28;20074;-72
2022/09/03 07:47:53;;;;;;;4.70;3.28;;;23.40;67.40;;;;;;5052411;28;20052;-72
2022/09/03 07:50:19;;;;;;;3.42;3.13;;;23.40;67.40;;;;;;5087963;28;20039;-72
2022/09/03 07:52:46;;;;;;;4.30;3.30;;;23.40;67.40;;;;;;5072812;28;20024;-72
2022/09/03 07:55:12;;;;;;;4.25;3.00;;;23.40;67.40;;;;;;5089700;28;20054;-72
2022/09/03 07:57:38;;;;;;;4.43;3.33;;;23.40;67.50;;;;;;5089609;28;20031;-71
2022/09/03 08:00:08;;;;;;;3.97;3.63;;;23.40;67.40;;;;;;5089895;28;20024;-72
2022/09/03 08:02:34;;;;;;;3.85;3.15;;;23.40;67.40;;;;;;5073153;28;20555;-75
2022/09/03 08:05:00;;;;;;;3.60;3.30;;;23.40;67.40;;;;;;5088586;28;20103;-80
2022/09/03 08:07:27;;;;;;;4.60;3.30;;;23.50;66.90;;;;;;5073458;28;20472;-79
2022/09/03 08:09:53;;;;;;;3.53;3.20;;;23.60;66.20;;;;;;5090211;28;20107;-80
2022/09/03 08:12:19;;;;;;;4.35;3.30;;;23.70;65.90;;;;;;5092676;28;20023;-80
2022/09/03 08:14:45;;;;;;;3.40;3.10;;;23.80;65.70;;;;;;5093416;28;20082;-81
2022/09/03 08:17:12;;;;;;;3.50;3.20;;;23.80;65.50;;;;;;5092119;28;20488;-81
2022/09/03 08:19:39;;;;;;;3.50;3.20;;;23.90;65.20;;;;;;5092526;28;20048;-81
2022/09/03 08:22:04;;;;;;;3.67;3.20;;;23.90;65.10;;;;;;5092403;28;20467;-81
2022/09/03 08:24:32;;;;;;;4.05;2.80;;;24.00;65.00;;;;;;5092271;28;20023;-80
2022/09/03 08:26:57;;;;;;;4.45;3.05;;;24.00;64.90;;;;;;5092244;28;20016;-80
2022/09/03 08:29:23;;;;;;;4.47;3.10;;;24.00;64.70;;;;;;5092378;28;20020;-80
2022/09/03 08:31:49;;;;;;;3.28;3.00;;;24.10;64.50;;;;;;5091769;28;20047;-79
2022/09/03 08:34:16;;;;;;;3.40;2.97;;;24.10;64.40;;;;;;5093322;28;20024;-69
2022/09/03 08:36:42;;;;;;;4.25;3.10;;;24.10;64.50;;;;;;5093250;28;20024;-69
2022/09/03 08:39:08;;;;;;;6.22;3.03;;;24.00;63.40;;;;;;5090998;28;20368;-70
2022/09/03 08:41:52;;;;;;;5.32;3.30;;;23.80;61.70;;;;;;5072597;28;20105;-69
2022/09/03 08:44:28;;;;;;;4.65;3.03;;;23.60;61.40;;;;;;5070619;28;20038;-70
2022/09/03 08:47:29;;;;;;;4.90;2.90;;;23.50;61.10;;;;;;5079289;28;20040;-69
2022/09/03 08:50:12;;;;;;;6.28;2.55;;;23.40;61.30;;;;;;5089639;28;20031;-70
2022/09/03 08:52:48;;;;;;;5.28;2.80;;;23.40;60.80;;;;;;5089703;28;20028;-77
2022/09/03 08:55:27;;;;;;;5.57;2.47;;;23.30;60.00;;;;;;5073719;28;20851;-76
2022/09/03 08:58:03;;;;;;;3.33;2.42;;;23.40;59.90;;;;;;5090005;28;20020;-76
2022/09/03 09:00:45;;;;;;;5.50;2.25;;;23.40;60.00;;;;;;5053788;28;20655;-76
2022/09/03 09:03:34;;;;;;;4.53;2.22;;;23.40;59.80;;;;;;5071009;28;20028;-72
2022/09/03 09:06:21;;;;;;;7.95;2.42;;;23.40;59.40;;;;;;5090926;28;20029;-76
2022/09/03 09:08:50;;;;;;;5.38;2.60;;;23.40;61.00;;;;;;5092379;28;20515;-75
2022/09/03 09:11:28;;;;;;;4.10;2.60;;;23.40;61.80;;;;;;5095720;28;20114;-76
2022/09/03 09:13:59;;;;;;;3.67;2.40;;;23.50;61.80;;;;;;5094601;28;20028;-76
2022/09/03 09:16:39;;;;;;;2.67;2.30;;;23.50;62.20;;;;;;5095219;28;20051;-76
2022/09/03 09:19:39;;;;;;;5.53;2.88;;;23.50;62.30;;;;;;5079404;28;20024;-76
2022/09/03 09:22:16;;;;;;;4.60;2.45;;;23.50;62.50;;;;;;5095390;28;20035;-75
2022/09/03 09:24:44;;;;;;;4.43;2.53;;;23.50;62.60;;;;;;5079294;28;20467;-76
2022/09/03 09:27:11;;;;;;;3.08;2.47;;;23.50;62.60;;;;;;5078597;28;20027;-75
2022/09/03 09:29:37;;;;;;;4.55;2.30;;;23.50;62.90;;;;;;5077048;28;20024;-75
2022/09/03 09:32:04;;;;;;;3.38;2.45;;;23.40;63.00;;;;;;5095133;28;20519;-75
2022/09/03 09:34:34;;;;;;;2.72;2.20;;;23.50;63.20;;;;;;5074494;28;20403;-73
2022/09/03 09:37:02;;;;;;;5.57;3.08;;;23.50;63.30;;;;;;5094738;28;20028;-74
2022/09/03 09:39:27;;;;;;;9.35;4.10;;;23.40;63.40;;;;;;5060426;28;20028;-74
2022/09/03 09:42:07;;;;;;;17.08;4.50;;;23.40;63.80;;;;;;5094498;28;20031;-74
2022/09/03 09:44:32;;;;;;;17.83;5.45;;;23.40;64.10;;;;;;5077745;28;20032;-74
2022/09/03 09:47:25;;;;;;;17.70;4.90;;;23.40;64.10;;;;;;5094022;28;20058;-74
2022/09/03 09:49:53;;;;;;;22.02;5.28;;;23.50;64.40;;;;;;5091877;28;20115;-74
2022/09/03 09:52:20;;;;;;;15.73;5.35;;;23.40;64.70;;;;;;5094226;28;20399;-74
2022/09/03 09:54:46;;;;;;;12.98;4.65;;;23.40;64.90;;;;;;5077779;28;20031;-74
2022/09/03 09:57:17;;;;;;;19.70;6.32;;;23.40;64.80;;;;;;5093955;28;20049;-74
2022/09/03 09:59:43;;;;;;;24.55;5.57;;;23.40;65.00;;;;;;5077541;28;20069;-74
2022/09/03 10:02:27;;;;;;;20.42;5.85;;;23.40;65.20;;;;;;5095354;28;20027;-74
2022/09/03 10:05:00;;;;;;;19.02;5.25;;;23.40;65.40;;;;;;5079549;28;20016;-74
2022/09/03 10:07:30;;;;;;;21.30;5.45;;;23.40;65.70;;;;;;5077624;28;20039;-74
2022/09/03 10:10:00;;;;;;;18.00;5.65;;;23.40;65.60;;;;;;5077793;28;20016;-74
2022/09/03 10:12:38;;;;;;;15.70;5.55;;;23.40;65.70;;;;;;5093777;28;20493;-74
2022/09/03 10:15:24;;;;;;;19.63;5.40;;;23.40;65.70;;;;;;5093855;28;20024;-74
2022/09/03 10:18:26;;;;;;;18.02;5.72;;;23.40;65.70;;;;;;5093810;28;20028;-74
2022/09/03 10:21:05;;;;;;;16.25;5.25;;;23.40;65.80;;;;;;5080316;28;20024;-74
2022/09/03 10:23:47;;;;;;;16.38;5.43;;;23.40;65.80;;;;;;5077446;28;20099;-74
2022/09/03 10:26:15;;;;;;;14.75;5.32;;;23.40;65.80;;;;;;5093874;28;20074;-74
2022/09/03 10:28:41;;;;;;;18.60;5.75;;;23.40;65.90;;;;;;5093653;28;20032;-74
2022/09/03 10:31:19;;;;;;;12.55;4.97;;;23.40;65.80;;;;;;5076785;28;20028;-74
2022/09/03 10:33:48;;;;;;;16.30;5.18;;;23.40;65.80;;;;;;5094967;28;20111;-74
2022/09/03 10:36:18;;;;;;;16.67;5.35;;;23.40;65.90;;;;;;5094581;28;20099;-74
2022/09/03 10:38:44;;;;;;;10.95;5.25;;;23.40;65.90;;;;;;5093521;28;20024;-74
2022/09/03 10:41:36;;;;;;;15.95;5.30;;;23.40;65.90;;;;;;5076425;28;20032;-74
2022/09/03 10:44:22;;;;;;;9.93;4.73;;;23.40;65.90;;;;;;5090338;28;20123;-74
2022/09/03 10:46:57;;;;;;;13.45;5.57;;;23.40;65.90;;;;;;5093316;28;20048;-74
2022/09/03 10:49:32;;;;;;;13.05;5.50;;;23.40;65.90;;;;;;5093406;28;20514;-74
2022/09/03 10:52:07;;;;;;;12.00;4.18;;;23.40;65.90;;;;;;5094565;28;20032;-74
2022/09/03 10:54:50;;;;;;;9.10;4.72;;;23.40;66.00;;;;;;5093166;28;20028;-74
2022/09/03 10:57:26;;;;;;;17.80;4.80;;;23.40;66.00;;;;;;5094084;28;20618;-74
2022/09/03 11:00:02;;;;;;;12.93;4.80;;;23.40;66.10;;;;;;5093127;28;20024;-74
2022/09/03 11:02:34;;;;;;;13.15;4.30;;;23.30;66.00;;;;;;5092992;28;20089;-74
2022/09/03 11:05:44;;;;;;;11.60;4.97;;;23.30;66.00;;;;;;5094033;28;20024;-74
2022/09/03 11:08:13;;;;;;;12.50;5.05;;;23.30;66.00;;;;;;5031730;28;20302;-74
2022/09/03 11:10:41;;;;;;;14.93;4.63;;;23.30;66.00;;;;;;5015045;28;20128;-74
2022/09/03 11:13:12;;;;;;;12.70;4.53;;;23.30;66.00;;;;;;5015339;28;20065;-74
2022/09/03 11:15:52;;;;;;;14.55;4.90;;;23.30;65.90;;;;;;5031692;28;20061;-74
2022/09/03 11:18:23;;;;;;;9.98;4.43;;;23.30;65.90;;;;;;5014916;28;20052;-74
2022/09/03 11:20:49;;;;;;;13.75;4.32;;;23.30;65.90;;;;;;5031505;28;20405;-74
2022/09/03 11:23:15;;;;;;;11.15;4.28;;;23.30;66.00;;;;;;5031371;28;20052;-74
2022/09/03 11:25:45;;;;;;;7.32;4.47;;;23.40;66.10;;;;;;5014996;28;20033;-74
2022/09/03 11:28:30;;;;;;;15.23;4.80;;;23.30;66.00;;;;;;5014842;28;20501;-74
2022/09/03 11:31:01;;;;;;;11.40;4.82;;;23.30;65.90;;;;;;5031412;28;20080;-74
2022/09/03 11:33:27;;;;;;;10.45;4.00;;;23.30;65.90;;;;;;5031350;28;20366;-74
2022/09/03 11:35:57;;;;;;;7.43;3.85;;;23.30;65.90;;;;;;5014947;28;20091;-74
2022/09/03 11:38:27;;;;;;;11.80;4.53;;;23.30;65.90;;;;;;5031089;28;20068;-74
2022/09/03 11:41:13;;;;;;;9.10;4.75;;;23.30;65.90;;;;;;5015091;28;20029;-74
2022/09/03 11:43:39;;;;;;;8.07;4.32;;;23.30;65.90;;;;;;5072048;28;20028;-74
2022/09/03 11:46:20;;;;;;;12.25;4.28;;;23.30;65.80;;;;;;5055561;28;20055;-74
2022/09/03 11:48:47;;;;;;;13.25;4.57;;;23.30;65.80;;;;;;5073110;28;20082;-74
2022/09/03 11:51:18;;;;;;;10.43;4.22;;;23.30;66.90;;;;;;5071834;28;20025;-74
2022/09/03 11:53:53;;;;;;;8.20;4.28;;;23.30;65.80;;;;;;5072162;28;20017;-74
2022/09/03 11:56:19;;;;;;;8.48;3.83;;;23.30;65.90;;;;;;5071737;28;20028;-74
2022/09/03 11:58:44;;;;;;;8.10;4.18;;;23.30;65.80;;;;;;5071804;28;20033;-74
2022/09/03 12:01:14;;;;;;;11.45;4.18;;;23.30;65.80;;;;;;5071486;28;20029;-74
2022/09/03 12:03:53;;;;;;;8.48;3.67;;;23.30;65.70;;;;;;5071864;28;20107;-74
2022/09/03 12:06:56;;;;;;;7.35;4.18;;;23.30;65.80;;;;;;5072761;28;20021;-74
2022/09/03 12:09:43;;;;;;;10.23;4.05;;;23.30;65.70;;;;;;5072608;28;20099;-74
2022/09/03 12:12:22;;;;;;;9.07;3.83;;;23.40;65.80;;;;;;5072662;28;20024;-74
2022/09/03 12:14:57;;;;;;;8.70;3.95;;;23.40;65.90;;;;;;5072819;28;20021;-74
2022/09/03 12:17:37;;;;;;;7.60;3.78;;;23.30;65.70;;;;;;5072437;28;20028;-74
2022/09/03 12:20:13;;;;;;;8.30;3.65;;;23.30;65.70;;;;;;5072784;28;20020;-74
2022/09/03 12:22:39;;;;;;;7.47;3.75;;;23.30;65.80;;;;;;5072145;28;20486;-74
2022/09/03 12:25:12;;;;;;;6.68;3.50;;;23.40;65.80;;;;;;5071056;28;20055;-74
2022/09/03 12:27:39;;;;;;;7.20;3.70;;;23.30;65.60;;;;;;5071567;28;20420;-74
2022/09/03 12:30:12;;;;;;;9.18;3.85;;;23.30;65.80;;;;;;5054693;28;20021;-74
2022/09/03 12:32:39;;;;;;;6.18;3.40;;;23.30;65.70;;;;;;5054769;28;20085;-74
2022/09/03 12:35:16;;;;;;;11.00;3.72;;;23.30;65.70;;;;;;5072429;28;20024;-74
2022/09/03 12:37:44;;;;;;;7.18;3.63;;;23.30;65.70;;;;;;5071081;28;20028;-74
2022/09/03 12:40:30;;;;;;;8.50;4.10;;;23.30;65.70;;;;;;5070927;28;20035;-74
2022/09/03 12:43:14;;;;;;;7.00;3.58;;;23.30;65.70;;;;;;5070650;28;20044;-74
2022/09/03 12:45:47;;;;;;;6.70;3.80;;;23.30;65.70;;;;;;5086915;28;20060;-74
2022/09/03 12:48:22;;;;;;;6.97;3.53;;;23.30;65.70;;;;;;5070677;28;20055;-74
2022/09/03 12:50:48;;;;;;;6.82;3.50;;;23.30;65.70;;;;;;5071177;28;20036;-74
2022/09/03 12:53:21;;;;;;;5.75;3.35;;;23.40;65.80;;;;;;5087458;28;20082;-74
2022/09/03 12:55:55;;;;;;;7.45;3.80;;;23.30;65.80;;;;;;5071028;28;20021;-74
2022/09/03 12:58:46;;;;;;;7.30;3.55;;;23.30;65.70;;;;;;5070834;28;20036;-74
2022/09/03 13:01:15;;;;;;;7.97;3.70;;;23.30;65.70;;;;;;5087630;28;20063;-74
2022/09/03 13:03:43;;;;;;;5.55;3.53;;;23.30;65.70;;;;;;5071075;28;20115;-74
2022/09/03 13:06:11;;;;;;;5.03;3.33;;;23.30;65.80;;;;;;5071976;28;20099;-74
2022/09/03 13:08:40;;;;;;;5.78;3.50;;;23.30;65.80;;;;;;5070667;28;20025;-74
2022/09/03 13:11:06;;;;;;;4.97;2.97;;;23.30;65.70;;;;;;5070839;28;20033;-74